Time;durP1;ratioP1;P1;durP2;ratioP2;P2;SDS_P1;SDS_P2;PMS_P1;PMS_P2;Temp;Humidity;BMP_temperature;BMP_pressure;BME280_temperature;BME280_humidity;BME280_pressure;Samples;Min_cycle;Max_cycle;Signal;HPM_P1;HPM_P2
2022/04/03 00:02:05;;;;;;;12.27;9.40;;;;;;;;;;4968989;28;20331;-70
2022/04/03 00:04:31;;;;;;;12.45;9.43;;;;;;;;;;4969520;28;20130;-70
2022/04/03 00:06:59;;;;;;;12.77;9.82;;;;;;;;;;4970992;28;20030;-71
2022/04/03 00:09:25;;;;;;;15.90;9.98;;;;;;;;;;4971271;28;20022;-71
2022/04/03 00:11:51;;;;;;;13.57;8.80;;;;;;;;;;4971368;28;20546;-70
2022/04/03 00:14:17;;;;;;;10.10;9.00;;;;;;;;;;4970508;28;20335;-71
2022/04/03 00:16:43;;;;;;;12.38;10.05;;;;;;;;;;4971004;28;20027;-71
2022/04/03 00:19:10;;;;;;;12.57;9.80;;;;;;;;;;4968912;28;20033;-70
2022/04/03 00:21:36;;;;;;;11.48;9.10;;;;;;;;;;4966715;28;20027;-69
2022/04/03 00:24:03;;;;;;;15.93;9.75;;;;;;;;;;4963221;28;20038;-70
2022/04/03 00:26:29;;;;;;;15.73;10.65;;;;;;;;;;4968932;28;20167;-72
2022/04/03 00:28:55;;;;;;;12.75;10.40;;;;;;;;;;4968681;28;20025;-69
2022/04/03 00:31:23;;;;;;;12.63;9.63;;;;;;;;;;4969623;28;20500;-69
2022/04/03 00:33:49;;;;;;;12.27;8.85;;;;;;;;;;4970204;28;20046;-70
2022/04/03 00:36:15;;;;;;;12.05;9.85;;;;;;;;;;4969584;28;20030;-69
2022/04/03 00:38:41;;;;;;;15.45;9.50;;;;;;;;;;4968726;28;20035;-70
2022/04/03 00:41:08;;;;;;;42.10;21.63;;;;;;;;;;4984084;28;20027;-70
2022/04/03 00:43:34;;;;;;;15.48;10.65;;;;;;;;;;4968144;28;20026;-70
2022/04/03 00:46:01;;;;;;;10.48;7.55;;;;;;;;;;4969872;28;20046;-70
2022/04/03 00:48:27;;;;;;;11.00;8.00;;;;;;;;;;4968072;28;20026;-69
2022/04/03 00:50:53;;;;;;;10.07;7.07;;;;;;;;;;4968935;28;20023;-71
2022/04/03 00:53:20;;;;;;;8.98;7.53;;;;;;;;;;4969722;28;20461;-70
2022/04/03 00:55:46;;;;;;;10.48;7.07;;;;;;;;;;4969588;28;20038;-71
2022/04/03 00:58:13;;;;;;;10.27;7.68;;;;;;;;;;4969685;28;20037;-71
2022/04/03 01:00:39;;;;;;;9.60;7.22;;;;;;;;;;4970951;28;20022;-71
2022/04/03 01:03:05;;;;;;;12.18;9.50;;;;;;;;;;4970927;28;20031;-69
2022/04/03 01:05:31;;;;;;;13.57;8.80;;;;;;;;;;4967971;28;20046;-70
2022/04/03 01:07:58;;;;;;;13.77;9.77;;;;;;;;;;4966779;28;20058;-70
2022/04/03 01:10:24;;;;;;;14.10;8.65;;;;;;;;;;4968617;28;20027;-70
2022/04/03 01:12:50;;;;;;;11.27;7.72;;;;;;;;;;4969047;28;20035;-71
2022/04/03 01:15:17;;;;;;;9.48;7.40;;;;;;;;;;4973440;28;20089;-71
2022/04/03 01:17:43;;;;;;;15.63;9.10;;;;;;;;;;4973915;28;20026;-72
2022/04/03 01:20:10;;;;;;;10.65;7.43;;;;;;;;;;4970415;28;20472;-69
2022/04/03 01:22:36;;;;;;;11.45;6.85;;;;;;;;;;4969384;28;20113;-69
2022/04/03 01:25:02;;;;;;;12.48;8.20;;;;;;;;;;4970426;28;20539;-71
2022/04/03 01:27:28;;;;;;;8.68;6.28;;;;;;;;;;4967744;28;20527;-69
2022/04/03 01:29:55;;;;;;;8.23;7.18;;;;;;;;;;4969636;28;20031;-68
2022/04/03 01:32:21;;;;;;;13.40;8.45;;;;;;;;;;4968177;28;20037;-71
2022/04/03 01:34:47;;;;;;;15.43;8.13;;;;;;;;;;4968084;28;20042;-71
2022/04/03 01:37:13;;;;;;;11.60;7.65;;;;;;;;;;4968506;28;20485;-71
2022/04/03 01:39:39;;;;;;;9.30;7.70;;;;;;;;;;4968619;28;20154;-71
2022/04/03 01:42:05;;;;;;;11.20;7.85;;;;;;;;;;4968387;28;20103;-70
2022/04/03 01:44:32;;;;;;;12.90;9.18;;;;;;;;;;4968089;28;20069;-71
2022/04/03 01:46:58;;;;;;;11.55;8.18;;;;;;;;;;4968175;28;20027;-71
2022/04/03 01:49:24;;;;;;;12.02;8.75;;;;;;;;;;4966804;28;20019;-70
2022/04/03 01:51:50;;;;;;;11.20;8.60;;;;;;;;;;4967035;28;20030;-71
2022/04/03 01:54:16;;;;;;;12.75;8.05;;;;;;;;;;4966833;28;20030;-70
2022/04/03 01:56:42;;;;;;;10.43;8.38;;;;;;;;;;4966062;28;20493;-70
2022/04/03 01:59:08;;;;;;;10.32;8.20;;;;;;;;;;4968812;28;20168;-69
2022/04/03 02:01:35;;;;;;;11.23;8.38;;;;;;;;;;4966402;28;20536;-71
2022/04/03 02:04:02;;;;;;;13.82;9.05;;;;;;;;;;4966485;28;20505;-70
2022/04/03 02:06:28;;;;;;;13.00;8.85;;;;;;;;;;4965819;28;20034;-69
2022/04/03 02:08:55;;;;;;;10.77;8.32;;;;;;;;;;4966708;28;20027;-69
2022/04/03 02:11:21;;;;;;;13.85;9.55;;;;;;;;;;4965098;28;20033;-71
2022/04/03 02:13:47;;;;;;;11.00;7.90;;;;;;;;;;4966715;28;20026;-71
2022/04/03 02:16:13;;;;;;;11.55;8.43;;;;;;;;;;4963504;28;20035;-71
2022/04/03 02:18:39;;;;;;;13.32;9.75;;;;;;;;;;4962720;28;20118;-70
2022/04/03 02:21:05;;;;;;;13.13;9.07;;;;;;;;;;4962022;28;20034;-69
2022/04/03 02:23:31;;;;;;;11.48;9.13;;;;;;;;;;4966154;28;20042;-69
2022/04/03 02:25:57;;;;;;;14.68;9.20;;;;;;;;;;4965313;28;20086;-70
2022/04/03 02:28:23;;;;;;;13.65;8.80;;;;;;;;;;4966367;28;20031;-67
2022/04/03 02:30:49;;;;;;;12.98;8.75;;;;;;;;;;4965071;28;20441;-68
2022/04/03 02:33:16;;;;;;;12.52;8.98;;;;;;;;;;4966695;28;20037;-70
2022/04/03 02:35:42;;;;;;;15.75;8.82;;;;;;;;;;4966742;28;20110;-71
2022/04/03 02:38:08;;;;;;;12.75;9.27;;;;;;;;;;4964030;28;20441;-71
2022/04/03 02:40:35;;;;;;;12.82;8.60;;;;;;;;;;4976300;28;20440;-69
2022/04/03 02:43:02;;;;;;;12.93;9.13;;;;;;;;;;4965926;28;20015;-71
2022/04/03 02:45:28;;;;;;;13.82;8.65;;;;;;;;;;4964600;28;20082;-71
2022/04/03 02:47:55;;;;;;;15.48;9.50;;;;;;;;;;4966338;28;20025;-71
2022/04/03 02:50:22;;;;;;;11.80;8.77;;;;;;;;;;4967496;28;20343;-70
2022/04/03 02:52:49;;;;;;;15.93;8.75;;;;;;;;;;4968334;28;20385;-67
2022/04/03 02:55:16;;;;;;;12.52;8.65;;;;;;;;;;4965358;28;20042;-69
2022/04/03 02:57:43;;;;;;;15.32;8.85;;;;;;;;;;4966319;28;20563;-70
2022/04/03 03:00:14;;;;;;;12.57;9.55;;;;;;;;;;4966830;28;20039;-68
2022/04/03 03:02:41;;;;;;;11.23;9.07;;;;;;;;;;4963970;28;20050;-70
2022/04/03 03:05:07;;;;;;;14.10;9.35;;;;;;;;;;4966127;28;20451;-69
2022/04/03 03:07:37;;;;;;;12.48;9.30;;;;;;;;;;4965604;28;20039;-70
2022/04/03 03:10:04;;;;;;;16.25;10.55;;;;;;;;;;4967080;28;20493;-69
2022/04/03 03:12:30;;;;;;;12.95;8.65;;;;;;;;;;4965722;28;20031;-67
2022/04/03 03:14:59;;;;;;;12.50;8.82;;;;;;;;;;4968318;28;20364;-68
2022/04/03 03:17:25;;;;;;;12.82;8.13;;;;;;;;;;4968376;28;20039;-69
2022/04/03 03:19:51;;;;;;;11.75;9.43;;;;;;;;;;4970053;28;20068;-67
2022/04/03 03:22:19;;;;;;;12.30;7.75;;;;;;;;;;4968473;28;20109;-69
2022/04/03 03:24:45;;;;;;;14.30;8.15;;;;;;;;;;4972213;28;20544;-69
2022/04/03 03:27:11;;;;;;;12.50;9.50;;;;;;;;;;4970280;28;20512;-70
2022/04/03 03:29:38;;;;;;;12.38;9.23;;;;;;;;;;4970451;28;20027;-70
2022/04/03 03:32:04;;;;;;;12.93;8.70;;;;;;;;;;4967198;28;20074;-70
2022/04/03 03:34:30;;;;;;;11.63;8.60;;;;;;;;;;4969234;28;20031;-69
2022/04/03 03:36:56;;;;;;;13.02;8.95;;;;;;;;;;4967745;28;20027;-70
2022/04/03 03:39:22;;;;;;;13.13;9.27;;;;;;;;;;4969699;28;20043;-70
2022/04/03 03:41:49;;;;;;;17.20;9.95;;;;;;;;;;4969025;28;20023;-68
2022/04/03 03:44:15;;;;;;;13.00;9.25;;;;;;;;;;4969623;28;20082;-68
2022/04/03 03:46:41;;;;;;;13.32;8.77;;;;;;;;;;4978978;28;20051;-69
2022/04/03 03:49:08;;;;;;;13.77;9.02;;;;;;;;;;4968132;28;20030;-69
2022/04/03 03:51:34;;;;;;;12.65;9.52;;;;;;;;;;4969272;28;20055;-68
2022/04/03 03:54:01;;;;;;;15.73;9.15;;;;;;;;;;4969333;28;20026;-71
2022/04/03 03:56:27;;;;;;;12.75;8.95;;;;;;;;;;4969148;28;20504;-71
2022/04/03 03:58:53;;;;;;;12.68;9.45;;;;;;;;;;4968508;28;20224;-69
2022/04/03 04:01:20;;;;;;;12.02;8.85;;;;;;;;;;4967500;28;20572;-68
2022/04/03 04:03:46;;;;;;;11.43;7.97;;;;;;;;;;4968213;28;20117;-68
2022/04/03 04:06:12;;;;;;;13.43;9.50;;;;;;;;;;4999399;28;20025;-67
2022/04/03 04:08:39;;;;;;;13.45;8.57;;;;;;;;;;4967434;28;20485;-70
2022/04/03 04:11:05;;;;;;;10.05;7.60;;;;;;;;;;4970719;28;20151;-70
2022/04/03 04:13:32;;;;;;;13.18;8.32;;;;;;;;;;4968133;28;20030;-69
2022/04/03 04:15:58;;;;;;;12.48;8.93;;;;;;;;;;4968922;28;20034;-68
2022/04/03 04:18:24;;;;;;;17.67;9.52;;;;;;;;;;4967472;28;20579;-69
2022/04/03 04:20:53;;;;;;;10.07;7.45;;;;;;;;;;4969128;28;20133;-68
2022/04/03 04:23:19;;;;;;;11.85;8.38;;;;;;;;;;4968482;28;20046;-68
2022/04/03 04:25:45;;;;;;;12.13;8.45;;;;;;;;;;4967716;28;20109;-67
2022/04/03 04:28:11;;;;;;;15.75;9.63;;;;;;;;;;4968804;28;20031;-68
2022/04/03 04:30:38;;;;;;;14.57;9.35;;;;;;;;;;4965633;28;20391;-68
2022/04/03 04:33:04;;;;;;;13.45;9.18;;;;;;;;;;4970505;28;20027;-68
2022/04/03 04:35:30;;;;;;;14.70;10.13;;;;;;;;;;4967767;28;20031;-69
2022/04/03 04:37:56;;;;;;;18.98;9.73;;;;;;;;;;4968328;28;20045;-69
2022/04/03 04:40:22;;;;;;;12.13;8.77;;;;;;;;;;4965574;28;20484;-69
2022/04/03 04:42:49;;;;;;;12.23;9.63;;;;;;;;;;4969227;28;20037;-69
2022/04/03 04:45:15;;;;;;;11.40;8.95;;;;;;;;;;4967368;28;20027;-70
2022/04/03 04:47:42;;;;;;;13.13;8.73;;;;;;;;;;4967378;28;20030;-70
2022/04/03 04:50:12;;;;;;;13.30;9.35;;;;;;;;;;4967109;28;20022;-69
2022/04/03 04:52:39;;;;;;;10.95;7.90;;;;;;;;;;4968611;28;20443;-70
2022/04/03 04:55:06;;;;;;;17.17;10.25;;;;;;;;;;4967894;28;20058;-67
2022/04/03 04:57:36;;;;;;;14.55;10.95;;;;;;;;;;4966478;28;20783;-68
2022/04/03 05:00:03;;;;;;;14.23;9.60;;;;;;;;;;4967774;28;20100;-71
2022/04/03 05:02:29;;;;;;;15.68;9.95;;;;;;;;;;4968398;28;20049;-70
2022/04/03 05:04:55;;;;;;;16.25;10.57;;;;;;;;;;4968328;28;20043;-70
2022/04/03 05:07:22;;;;;;;14.35;9.65;;;;;;;;;;4967749;28;20019;-71
2022/04/03 05:09:49;;;;;;;16.00;10.75;;;;;;;;;;4968192;28;20038;-69
2022/04/03 05:12:15;;;;;;;18.25;10.50;;;;;;;;;;4967701;28;20797;-70
2022/04/03 05:14:42;;;;;;;20.20;10.55;;;;;;;;;;4965714;28;20058;-68
2022/04/03 05:17:08;;;;;;;15.98;10.55;;;;;;;;;;4967243;28;20026;-69
2022/04/03 05:19:35;;;;;;;13.20;9.65;;;;;;;;;;4969936;28;20035;-70
2022/04/03 05:22:01;;;;;;;14.75;10.07;;;;;;;;;;4968291;28;20030;-68
2022/04/03 05:24:28;;;;;;;12.38;9.40;;;;;;;;;;4968883;28;20019;-71
2022/04/03 05:26:54;;;;;;;13.45;9.60;;;;;;;;;;4964445;28;20040;-72
2022/04/03 05:29:20;;;;;;;13.60;10.15;;;;;;;;;;4970646;28;20294;-69
2022/04/03 05:31:46;;;;;;;14.23;10.05;;;;;;;;;;4968347;28;20086;-69
2022/04/03 05:34:13;;;;;;;15.05;9.32;;;;;;;;;;4971452;28;20105;-71
2022/04/03 05:36:39;;;;;;;13.38;9.07;;;;;;;;;;4967852;28;20425;-70
2022/04/03 05:39:06;;;;;;;14.68;10.43;;;;;;;;;;4968406;28;20545;-69
2022/04/03 05:41:35;;;;;;;15.45;10.07;;;;;;;;;;4962693;28;20031;-68
2022/04/03 05:44:02;;;;;;;16.70;9.40;;;;;;;;;;4961171;28;20083;-69
2022/04/03 05:46:28;;;;;;;14.68;9.80;;;;;;;;;;4961939;28;20037;-69
2022/04/03 05:48:54;;;;;;;14.63;9.57;;;;;;;;;;4961968;28;20023;-70
2022/04/03 05:51:20;;;;;;;15.45;9.85;;;;;;;;;;4967268;28;20387;-71
2022/04/03 05:53:46;;;;;;;18.55;10.68;;;;;;;;;;4967267;28;20034;-70
2022/04/03 05:56:12;;;;;;;15.25;10.75;;;;;;;;;;4967334;28;20152;-71
2022/04/03 05:58:39;;;;;;;14.15;9.85;;;;;;;;;;4966438;28;20122;-70
2022/04/03 06:01:05;;;;;;;16.40;10.02;;;;;;;;;;4967763;28;20046;-69
2022/04/03 06:03:31;;;;;;;16.70;10.75;;;;;;;;;;4966367;28;20042;-69
2022/04/03 06:05:57;;;;;;;16.15;10.60;;;;;;;;;;4965577;28;20519;-69
2022/04/03 06:08:23;;;;;;;16.17;11.45;;;;;;;;;;4966245;28;20023;-71
2022/04/03 06:10:50;;;;;;;16.63;10.75;;;;;;;;;;4965450;28;20035;-71
2022/04/03 06:13:16;;;;;;;16.55;10.95;;;;;;;;;;4967236;28;20305;-71
2022/04/03 06:15:43;;;;;;;14.32;9.65;;;;;;;;;;4964795;28;20062;-71
2022/04/03 06:18:13;;;;;;;14.20;10.40;;;;;;;;;;4966631;28;20033;-69
2022/04/03 06:20:39;;;;;;;18.55;10.93;;;;;;;;;;4967773;28;20034;-70
2022/04/03 06:23:35;;;;;;;15.30;10.10;;;;;;;;;;4967245;28;20030;-69
2022/04/03 06:26:02;;;;;;;12.52;10.02;;;;;;;;;;4954200;28;20402;-70
2022/04/03 06:28:28;;;;;;;15.48;9.77;;;;;;;;;;4963855;28;20056;-71
2022/04/03 06:30:56;;;;;;;14.45;10.10;;;;;;;;;;4965233;28;20105;-71
2022/04/03 06:33:22;;;;;;;13.57;9.82;;;;;;;;;;4965992;28;20023;-71
2022/04/03 06:35:49;;;;;;;14.00;10.07;;;;;;;;;;4968203;28;20106;-71
2022/04/03 06:38:15;;;;;;;16.65;9.95;;;;;;;;;;4966399;28;20031;-72
2022/04/03 06:40:45;;;;;;;15.82;10.40;;;;;;;;;;4969089;28;20031;-69
2022/04/03 06:43:11;;;;;;;14.65;9.60;;;;;;;;;;4964418;28;20562;-71
2022/04/03 06:45:37;;;;;;;15.50;10.50;;;;;;;;;;4968856;28;20087;-72
2022/04/03 06:48:03;;;;;;;15.77;9.57;;;;;;;;;;4965877;28;20496;-70
2022/04/03 06:50:30;;;;;;;17.15;10.55;;;;;;;;;;4972526;28;20035;-70
2022/04/03 06:52:56;;;;;;;13.77;9.90;;;;;;;;;;4966058;28;20077;-70
2022/04/03 06:55:22;;;;;;;14.25;11.45;;;;;;;;;;4982108;28;20070;-70
2022/04/03 06:57:48;;;;;;;16.77;10.60;;;;;;;;;;4967081;28;20569;-69
2022/04/03 07:00:14;;;;;;;16.58;9.98;;;;;;;;;;4966644;28;20105;-70
2022/04/03 07:02:40;;;;;;;14.00;9.95;;;;;;;;;;4967375;28;20113;-70
2022/04/03 07:05:09;;;;;;;14.98;10.45;;;;;;;;;;4968334;28;20042;-70
2022/04/03 07:07:35;;;;;;;16.88;10.88;;;;;;;;;;4999917;28;20023;-70
2022/04/03 07:10:01;;;;;;;11.43;9.68;;;;;;;;;;4970206;28;20177;-71
2022/04/03 07:12:27;;;;;;;13.05;10.32;;;;;;;;;;4966541;28;20039;-71
2022/04/03 07:14:56;;;;;;;11.18;9.05;;;;;;;;;;4966333;28;20031;-70
2022/04/03 07:17:22;;;;;;;16.25;10.00;;;;;;;;;;4965589;28;20039;-70
2022/04/03 07:19:48;;;;;;;15.35;9.52;;;;;;;;;;4966067;28;20050;-70
2022/04/03 07:22:14;;;;;;;12.98;9.55;;;;;;;;;;4966516;28;20027;-70
2022/04/03 07:24:41;;;;;;;13.93;9.40;;;;;;;;;;4967000;28;20035;-69
2022/04/03 07:27:07;;;;;;;12.02;9.35;;;;;;;;;;4967159;28;20073;-70
2022/04/03 07:29:33;;;;;;;13.25;8.00;;;;;;;;;;4969126;28;20312;-71
2022/04/03 07:32:00;;;;;;;12.38;8.95;;;;;;;;;;4965600;28;20476;-70
2022/04/03 07:34:26;;;;;;;13.52;9.27;;;;;;;;;;4965266;28;20034;-70
2022/04/03 07:36:52;;;;;;;11.18;7.75;;;;;;;;;;4965527;28;20043;-69
2022/04/03 07:39:18;;;;;;;11.60;8.07;;;;;;;;;;4963097;28;20530;-69
2022/04/03 07:41:44;;;;;;;11.70;8.50;;;;;;;;;;4968763;28;20114;-71
2022/04/03 07:44:12;;;;;;;10.55;7.43;;;;;;;;;;4968768;28;20030;-71
2022/04/03 07:46:38;;;;;;;13.70;8.90;;;;;;;;;;4967296;28;20110;-72
2022/04/03 07:49:05;;;;;;;12.93;8.32;;;;;;;;;;4969995;28;20030;-71
2022/04/03 07:51:32;;;;;;;17.15;8.98;;;;;;;;;;4969850;28;20027;-72
2022/04/03 07:53:58;;;;;;;14.63;9.27;;;;;;;;;;4964500;28;20536;-72
2022/04/03 07:56:24;;;;;;;11.63;7.93;;;;;;;;;;4962369;28;20034;-72
2022/04/03 07:58:50;;;;;;;12.38;9.48;;;;;;;;;;4961677;28;20256;-70
2022/04/03 08:01:16;;;;;;;13.20;8.27;;;;;;;;;;4966424;28;20050;-71
2022/04/03 08:03:42;;;;;;;11.52;8.93;;;;;;;;;;4967603;28;20182;-73
2022/04/03 08:06:09;;;;;;;10.82;7.97;;;;;;;;;;4966738;28;20117;-70
2022/04/03 08:08:35;;;;;;;12.57;7.82;;;;;;;;;;4965091;28;20480;-71
2022/04/03 08:11:02;;;;;;;15.63;8.63;;;;;;;;;;4967802;28;20029;-70
2022/04/03 08:13:28;;;;;;;12.15;7.85;;;;;;;;;;4966192;28;20031;-71
2022/04/03 08:15:55;;;;;;;10.98;7.93;;;;;;;;;;4968923;28;20031;-71
2022/04/03 08:18:22;;;;;;;11.70;8.27;;;;;;;;;;4966877;28;20034;-71
2022/04/03 08:20:51;;;;;;;11.27;6.80;;;;;;;;;;4971248;28;20035;-71
2022/04/03 08:23:17;;;;;;;11.18;7.85;;;;;;;;;;4963117;28;20027;-70
2022/04/03 08:25:45;;;;;;;9.82;7.75;;;;;;;;;;4967446;28;20552;-70
2022/04/03 08:28:11;;;;;;;10.75;7.22;;;;;;;;;;4968967;28;20031;-71
2022/04/03 08:30:38;;;;;;;11.48;7.95;;;;;;;;;;4968463;28;20027;-71
2022/04/03 08:33:05;;;;;;;11.05;8.48;;;;;;;;;;4969160;28;20336;-70
2022/04/03 08:35:31;;;;;;;11.43;8.05;;;;;;;;;;4970343;28;20043;-70
2022/04/03 08:37:58;;;;;;;10.65;8.32;;;;;;;;;;4968303;28;20495;-71
2022/04/03 08:40:25;;;;;;;10.35;6.63;;;;;;;;;;4968888;28;20081;-71
2022/04/03 08:42:52;;;;;;;9.77;7.13;;;;;;;;;;4970780;28;20069;-71
2022/04/03 08:45:19;;;;;;;10.00;7.35;;;;;;;;;;4968905;28;20387;-70
2022/04/03 08:47:45;;;;;;;9.05;6.45;;;;;;;;;;4962932;28;20073;-70
2022/04/03 08:50:15;;;;;;;9.75;7.18;;;;;;;;;;4969776;28;20034;-70
2022/04/03 08:52:46;;;;;;;8.05;6.30;;;;;;;;;;4970501;28;20026;-72
2022/04/03 08:55:13;;;;;;;9.05;5.68;;;;;;;;;;4966201;28;20057;-73
2022/04/03 08:57:39;;;;;;;9.80;5.82;;;;;;;;;;4967799;28;20041;-71
2022/04/03 09:00:06;;;;;;;8.18;5.57;;;;;;;;;;4962080;28;20031;-72
2022/04/03 09:02:32;;;;;;;6.97;5.20;;;;;;;;;;4966622;28;20034;-73
2022/04/03 09:04:58;;;;;;;7.25;4.85;;;;;;;;;;4966416;28;20093;-71
2022/04/03 09:07:24;;;;;;;9.48;5.53;;;;;;;;;;4967046;28;20484;-70
2022/04/03 09:10:00;;;;;;;10.35;6.53;;;;;;;;;;4964575;28;20035;-71
2022/04/03 09:12:26;;;;;;;11.63;5.78;;;;;;;;;;4965149;28;20041;-72
2022/04/03 09:14:53;;;;;;;10.88;5.75;;;;;;;;;;4966214;28;20050;-71
2022/04/03 09:17:42;;;;;;;8.52;6.68;;;;;;;;;;4968781;28;20527;-72
2022/04/03 09:20:18;;;;;;;7.93;5.63;;;;;;;;;;4967241;28;20034;-71
2022/04/03 09:22:46;;;;;;;9.30;5.95;;;;;;;;;;4967163;28;20034;-73
2022/04/03 09:25:13;;;;;;;7.00;5.50;;;;;;;;;;4968873;28;20027;-72
2022/04/03 09:27:48;;;;;;;6.45;5.32;;;;;;;;;;4964923;28;20493;-72
2022/04/03 09:30:15;;;;;;;10.65;6.22;;;;;;;;;;4967252;28;20405;-72
2022/04/03 09:32:48;;;;;;;7.28;5.32;;;;;;;;;;4967517;28;20030;-71
2022/04/03 09:35:16;;;;;;;8.57;6.40;;;;;;;;;;4965101;28;20061;-71
2022/04/03 09:38:02;;;;;;;10.52;7.07;;;;;;;;;;4967594;28;20035;-73
2022/04/03 09:40:27;;;;;;;;;;;;;;;;;;4966983;28;20494;-73
2022/04/03 09:42:53;;;;;;;;;;;;;;;;;;4968527;28;20008;-72
2022/04/03 09:45:25;;;;;;;18.42;7.00;;;;;;;;;;4966845;28;20023;-71
2022/04/03 09:47:52;;;;;;;9.77;6.32;;;;;;;;;;4967958;28;20019;-70
2022/04/03 09:50:18;;;;;;;8.65;6.38;;;;;;;;;;4969537;28;20094;-71
2022/04/03 09:52:47;;;;;;;9.00;6.47;;;;;;;;;;4969668;28;20026;-72
2022/04/03 09:55:14;;;;;;;7.50;6.13;;;;;;;;;;4968135;28;20083;-71
2022/04/03 09:57:41;;;;;;;7.70;6.38;;;;;;;;;;4969615;28;20026;-70
2022/04/03 10:00:07;;;;;;;9.48;6.95;;;;;;;;;;4968674;28;20153;-71
2022/04/03 10:02:33;;;;;;;8.98;6.38;;;;;;;;;;4968621;28;20030;-71
2022/04/03 10:04:59;;;;;;;9.52;6.32;;;;;;;;;;4968863;28;20137;-72
2022/04/03 10:07:26;;;;;;;8.60;6.32;;;;;;;;;;4967442;28;20163;-73
2022/04/03 10:09:53;;;;;;;9.68;6.82;;;;;;;;;;4969225;28;20101;-71
2022/04/03 10:12:21;;;;;;;9.48;6.95;;;;;;;;;;4970636;28;20027;-70
2022/04/03 10:14:47;;;;;;;10.13;8.05;;;;;;;;;;4958697;28;20501;-72
2022/04/03 10:17:14;;;;;;;11.60;8.32;;;;;;;;;;4966089;28;20022;-70
2022/04/03 10:19:41;;;;;;;9.32;7.68;;;;;;;;;;4960688;28;20042;-73
2022/04/03 10:22:09;;;;;;;7.93;6.72;;;;;;;;;;4973375;28;20030;-72
2022/04/03 10:24:38;;;;;;;8.27;6.63;;;;;;;;;;4963387;28;20113;-72
2022/04/03 10:27:06;;;;;;;7.95;6.53;;;;;;;;;;4962323;28;20037;-72
2022/04/03 10:29:34;;;;;;;8.32;6.07;;;;;;;;;;4965064;28;20372;-72
2022/04/03 10:32:05;;;;;;;8.77;6.32;;;;;;;;;;4962336;28;20031;-72
2022/04/03 10:34:32;;;;;;;7.70;5.28;;;;;;;;;;4963522;28;20039;-73
2022/04/03 10:36:58;;;;;;;6.65;5.15;;;;;;;;;;4962238;28;20031;-73
2022/04/03 10:39:28;;;;;;;5.55;4.80;;;;;;;;;;4962259;28;20037;-73
2022/04/03 10:42:14;;;;;;;8.02;5.45;;;;;;;;;;4962708;28;20034;-72
2022/04/03 10:44:40;;;;;;;8.45;5.40;;;;;;;;;;4992570;28;20035;-72
2022/04/03 10:47:06;;;;;;;6.55;5.22;;;;;;;;;;4963068;28;20610;-70
2022/04/03 10:49:38;;;;;;;5.18;4.45;;;;;;;;;;4963005;28;20034;-72
2022/04/03 10:52:04;;;;;;;9.15;5.03;;;;;;;;;;4963922;28;20290;-73
2022/04/03 10:54:31;;;;;;;5.47;4.47;;;;;;;;;;4960714;28;20420;-72
2022/04/03 10:57:15;;;;;;;5.03;4.35;;;;;;;;;;4962681;28;20496;-72
2022/04/03 10:59:41;;;;;;;5.63;4.80;;;;;;;;;;4964033;28;20042;-71
2022/04/03 11:02:14;;;;;;;4.18;3.50;;;;;;;;;;4962665;28;20026;-71
2022/04/03 11:04:40;;;;;;;4.25;3.63;;;;;;;;;;4961826;28;20054;-72
2022/04/03 11:07:13;;;;;;;3.90;3.22;;;;;;;;;;4965014;28;20037;-71
2022/04/03 11:09:47;;;;;;;4.07;3.60;;;;;;;;;;4975862;28;20033;-72
2022/04/03 11:12:13;;;;;;;4.97;4.10;;;;;;;;;;4963519;28;20113;-71
2022/04/03 11:14:52;;;;;;;6.40;3.92;;;;;;;;;;4969856;28;20281;-71
2022/04/03 11:17:37;;;;;;;5.05;4.13;;;;;;;;;;4966073;28;20134;-74
2022/04/03 11:20:03;;;;;;;4.72;4.32;;;;;;;;;;4964199;28;20400;-71
2022/04/03 11:22:31;;;;;;;4.00;3.60;;;;;;;;;;4969514;28;20066;-72
2022/04/03 11:24:57;;;;;;;6.93;4.55;;;;;;;;;;4965090;28;20058;-70
2022/04/03 11:27:23;;;;;;;5.60;4.13;;;;;;;;;;4963826;28;20449;-73
2022/04/03 11:29:50;;;;;;;6.15;3.83;;;;;;;;;;4963569;28;20471;-71
2022/04/03 11:32:16;;;;;;;5.47;4.18;;;;;;;;;;4962218;28;20098;-70
2022/04/03 11:34:42;;;;;;;15.95;12.15;;;;;;;;;;4961456;28;20041;-71
2022/04/03 11:37:10;;;;;;;5.32;3.83;;;;;;;;;;4967618;28;20060;-73
2022/04/03 11:39:40;;;;;;;7.30;3.95;;;;;;;;;;4966935;28;20481;-72
2022/04/03 11:42:10;;;;;;;4.20;3.70;;;;;;;;;;4965043;28;20063;-73
2022/04/03 11:44:37;;;;;;;6.50;3.92;;;;;;;;;;4963218;28;20472;-71
2022/04/03 11:47:04;;;;;;;5.82;4.22;;;;;;;;;;4965099;28;20054;-72
2022/04/03 11:49:31;;;;;;;5.03;4.28;;;;;;;;;;4967165;28;20405;-72
2022/04/03 11:52:06;;;;;;;7.13;4.20;;;;;;;;;;4966575;28;20030;-71
2022/04/03 11:54:32;;;;;;;;;;;;;;;;;;4966129;28;20038;-72
2022/04/03 11:57:00;;;;;;;5.75;4.07;;;;;;;;;;4969153;28;19916;-72
2022/04/03 11:59:26;;;;;;;5.78;4.15;;;;;;;;;;4970413;28;20026;-69
2022/04/03 12:01:52;;;;;;;5.57;4.53;;;;;;;;;;4971141;28;20035;-71
2022/04/03 12:04:19;;;;;;;4.68;4.13;;;;;;;;;;4974562;28;20047;-74
2022/04/03 12:06:50;;;;;;;4.70;4.20;;;;;;;;;;4972486;28;20026;-71
2022/04/03 12:09:16;;;;;;;4.55;3.80;;;;;;;;;;4973449;28;20023;-73
2022/04/03 12:11:51;;;;;;;4.75;4.10;;;;;;;;;;4974738;28;20019;-74
2022/04/03 12:14:27;;;;;;;4.63;4.22;;;;;;;;;;4969856;28;20030;-70
2022/04/03 12:17:00;;;;;;;4.20;3.80;;;;;;;;;;4968968;28;20035;-71
2022/04/03 12:19:27;;;;;;;4.75;3.80;;;;;;;;;;4962917;28;20050;-69
2022/04/03 12:21:56;;;;;;;4.82;3.97;;;;;;;;;;4964402;28;20041;-71
2022/04/03 12:24:24;;;;;;;4.93;4.35;;;;;;;;;;4964771;28;20081;-69
2022/04/03 12:26:50;;;;;;;5.28;3.88;;;;;;;;;;4966233;28;20041;-72
2022/04/03 12:29:17;;;;;;;4.65;4.03;;;;;;;;;;4963677;28;20089;-70
2022/04/03 12:31:44;;;;;;;4.40;4.00;;;;;;;;;;4963711;28;20062;-72
2022/04/03 12:34:10;;;;;;;4.32;3.67;;;;;;;;;;4965107;28;20125;-72
2022/04/03 12:36:40;;;;;;;4.35;3.95;;;;;;;;;;4965266;28;20130;-71
2022/04/03 12:39:27;;;;;;;3.58;3.15;;;;;;;;;;4969285;28;20111;-72
2022/04/03 12:41:53;;;;;;;5.07;3.47;;;;;;;;;;4970087;28;20031;-75
2022/04/03 12:44:20;;;;;;;3.10;2.80;;;;;;;;;;4969075;28;20058;-71
2022/04/03 12:46:46;;;;;;;3.00;2.70;;;;;;;;;;4964108;28;20106;-71
2022/04/03 12:49:18;;;;;;;3.03;2.70;;;;;;;;;;4967993;28;20030;-73
2022/04/03 12:51:48;;;;;;;3.80;2.78;;;;;;;;;;4964050;28;20022;-72
2022/04/03 12:54:15;;;;;;;3.30;2.90;;;;;;;;;;4963151;28;20106;-73
2022/04/03 12:59:38;;;;;;;2.95;2.72;;;;;;;;;;4956285;28;20345;-73
2022/04/03 13:02:08;;;;;;;3.97;2.72;;;;;;;;;;4962690;28;20026;-75
2022/04/03 13:04:34;;;;;;;3.67;2.95;;;;;;;;;;4960270;28;20173;-71
2022/04/03 13:07:03;;;;;;;3.15;2.72;;;;;;;;;;4962431;28;20370;-73
2022/04/03 13:09:30;;;;;;;4.32;3.13;;;;;;;;;;4962184;28;20019;-73
2022/04/03 13:11:58;;;;;;;3.08;2.78;;;;;;;;;;4962557;28;20603;-73
2022/04/03 13:14:33;;;;;;;3.33;3.03;;;;;;;;;;4965049;28;20508;-72
2022/04/03 13:17:01;;;;;;;2.88;2.67;;;;;;;;;;4964481;28;20034;-74
2022/04/03 13:19:28;;;;;;;3.92;2.83;;;;;;;;;;4963730;28;20038;-74
2022/04/03 13:21:55;;;;;;;4.75;3.17;;;;;;;;;;4963633;28;20061;-74
2022/04/03 13:24:21;;;;;;;3.88;2.80;;;;;;;;;;4962784;28;20089;-73
2022/04/03 13:26:48;;;;;;;4.25;2.90;;;;;;;;;;4964337;28;20081;-73
2022/04/03 13:29:15;;;;;;;3.55;2.97;;;;;;;;;;4964140;28;20081;-73
2022/04/03 13:31:42;;;;;;;3.63;3.10;;;;;;;;;;4978029;28;20030;-72
2022/04/03 13:34:08;;;;;;;4.75;3.65;;;;;;;;;;4963150;28;20026;-73
2022/04/03 13:36:34;;;;;;;5.40;3.40;;;;;;;;;;4958623;28;20073;-73
2022/04/03 13:39:01;;;;;;;4.22;3.30;;;;;;;;;;4962801;28;20158;-72
2022/04/03 13:41:27;;;;;;;4.60;3.30;;;;;;;;;;4956200;28;20031;-72
2022/04/03 13:43:53;;;;;;;4.28;3.70;;;;;;;;;;4959485;28;20043;-73
2022/04/03 13:46:19;;;;;;;5.95;4.45;;;;;;;;;;4960921;28;20030;-73
2022/04/03 13:48:46;;;;;;;5.10;3.42;;;;;;;;;;4962643;28;20105;-70
2022/04/03 13:51:13;;;;;;;3.25;2.70;;;;;;;;;;4961879;28;20435;-73
2022/04/03 13:53:40;;;;;;;4.07;2.90;;;;;;;;;;4964516;28;20114;-73
2022/04/03 13:56:07;;;;;;;3.22;2.80;;;;;;;;;;4962971;28;20034;-74
2022/04/03 13:58:34;;;;;;;2.60;2.40;;;;;;;;;;4964529;28;20134;-71
2022/04/03 14:01:01;;;;;;;3.60;2.83;;;;;;;;;;4961009;28;20037;-72
2022/04/03 14:03:28;;;;;;;4.05;2.65;;;;;;;;;;4963283;28;20031;-75
2022/04/03 14:05:54;;;;;;;2.90;2.40;;;;;;;;;;4960743;28;20031;-73
2022/04/03 14:08:20;;;;;;;2.38;2.17;;;;;;;;;;4962134;28;20038;-73
2022/04/03 14:10:50;;;;;;;3.38;2.33;;;;;;;;;;4962386;28;20027;-73
2022/04/03 14:13:16;;;;;;;3.83;2.33;;;;;;;;;;4960949;28;20027;-74
2022/04/03 14:15:43;;;;;;;4.07;2.40;;;;;;;;;;4961634;28;20054;-73
2022/04/03 14:18:09;;;;;;;3.33;2.78;;;;;;;;;;4961024;28;20070;-70
2022/04/03 14:20:35;;;;;;;2.50;2.10;;;;;;;;;;4963477;28;20448;-74
2022/04/03 14:23:01;;;;;;;3.63;2.53;;;;;;;;;;4961953;28;20030;-72
2022/04/03 14:25:28;;;;;;;3.13;2.35;;;;;;;;;;4962055;28;20031;-73
2022/04/03 14:27:57;;;;;;;4.47;2.45;;;;;;;;;;4961095;28;20023;-73
2022/04/03 14:30:23;;;;;;;2.70;2.30;;;;;;;;;;4961495;28;20034;-74
2022/04/03 14:32:50;;;;;;;3.22;2.15;;;;;;;;;;4962476;28;20085;-73
2022/04/03 14:35:16;;;;;;;2.95;2.33;;;;;;;;;;4961979;28;20382;-74
2022/04/03 14:37:43;;;;;;;3.47;2.42;;;;;;;;;;4960132;28;20105;-74